sensor_id;sensor_type;location;lat;lon;timestamp;pressure;altitude;pressure_sealevel;temperature;humidity
23805;BME280;12083;52.098;7.582;2022-08-21T00:00:20;101341.41;;;21.11;59.86
23805;BME280;12083;52.098;7.582;2022-08-21T00:03:07;101340.84;;;21.05;60.00
23805;BME280;12083;52.098;7.582;2022-08-21T00:05:38;101343.63;;;21.03;60.36
23805;BME280;12083;52.098;7.582;2022-08-21T00:08:04;101336.66;;;21.01;60.13
23805;BME280;12083;52.098;7.582;2022-08-21T00:10:30;101337.50;;;21.01;60.40
23805;BME280;12083;52.098;7.582;2022-08-21T00:12:56;101337.78;;;20.97;60.53
23805;BME280;12083;52.098;7.582;2022-08-21T00:15:28;101322.78;;;20.94;60.69
23805;BME280;12083;52.098;7.582;2022-08-21T00:17:55;101322.78;;;20.94;60.50
23805;BME280;12083;52.098;7.582;2022-08-21T00:20:22;101321.22;;;20.90;60.83
23805;BME280;12083;52.098;7.582;2022-08-21T00:22:47;101318.66;;;20.88;60.62
23805;BME280;12083;52.098;7.582;2022-08-21T00:25:14;101320.53;;;20.86;60.87
23805;BME280;12083;52.098;7.582;2022-08-21T00:27:41;101326.06;;;20.83;60.89
23805;BME280;12083;52.098;7.582;2022-08-21T00:30:14;101317.38;;;20.80;61.38
23805;BME280;12083;52.098;7.582;2022-08-21T00:32:41;101316.59;;;20.78;61.15
23805;BME280;12083;52.098;7.582;2022-08-21T00:35:10;101316.75;;;20.75;61.34
23805;BME280;12083;52.098;7.582;2022-08-21T00:37:38;101314.19;;;20.73;61.31
23805;BME280;12083;52.098;7.582;2022-08-21T00:40:08;101309.88;;;20.71;61.50
23805;BME280;12083;52.098;7.582;2022-08-21T00:42:34;101320.56;;;20.71;61.46
23805;BME280;12083;52.098;7.582;2022-08-21T00:45:00;101322.34;;;20.70;61.54
23805;BME280;12083;52.098;7.582;2022-08-21T00:47:25;101310.91;;;20.68;61.61
23805;BME280;12083;52.098;7.582;2022-08-21T00:49:51;101316.34;;;20.67;61.86
23805;BME280;12083;52.098;7.582;2022-08-21T00:52:24;101307.63;;;20.63;61.97
23805;BME280;12083;52.098;7.582;2022-08-21T00:54:54;101311.25;;;20.62;61.92
23805;BME280;12083;52.098;7.582;2022-08-21T00:57:25;101317.56;;;20.61;61.92
23805;BME280;12083;52.098;7.582;2022-08-21T00:59:54;101307.88;;;20.59;62.16
23805;BME280;12083;52.098;7.582;2022-08-21T01:02:21;101316.75;;;20.59;62.20
23805;BME280;12083;52.098;7.582;2022-08-21T01:04:47;101314.19;;;20.58;62.40
23805;BME280;12083;52.098;7.582;2022-08-21T01:07:13;101312.47;;;20.57;62.36
23805;BME280;12083;52.098;7.582;2022-08-21T01:09:40;101306.25;;;20.56;62.40
23805;BME280;12083;52.098;7.582;2022-08-21T01:12:06;101312.53;;;20.55;62.38
23805;BME280;12083;52.098;7.582;2022-08-21T01:14:32;101306.44;;;20.53;62.61
23805;BME280;12083;52.098;7.582;2022-08-21T01:16:59;101303.94;;;20.50;62.83
23805;BME280;12083;52.098;7.582;2022-08-21T01:19:27;101304.88;;;20.49;62.99
23805;BME280;12083;52.098;7.582;2022-08-21T01:21:53;101310.22;;;20.49;62.96
23805;BME280;12083;52.098;7.582;2022-08-21T01:24:20;101319.16;;;20.48;63.09
23805;BME280;12083;52.098;7.582;2022-08-21T01:26:47;101311.41;;;20.43;63.28
23805;BME280;12083;52.098;7.582;2022-08-21T01:31:42;101314.19;;;20.42;63.56
23805;BME280;12083;52.098;7.582;2022-08-21T01:34:08;101315.31;;;20.38;63.51
23805;BME280;12083;52.098;7.582;2022-08-21T01:36:34;101319.84;;;20.36;63.70
23805;BME280;12083;52.098;7.582;2022-08-21T01:39:01;101315.63;;;20.32;63.68
23805;BME280;12083;52.098;7.582;2022-08-21T01:41:27;101315.78;;;20.29;63.73
23805;BME280;12083;52.098;7.582;2022-08-21T01:43:52;101316.97;;;20.23;63.99
23805;BME280;12083;52.098;7.582;2022-08-21T01:46:18;101323.25;;;20.22;63.83
23805;BME280;12083;52.098;7.582;2022-08-21T01:48:44;101317.22;;;20.19;63.97
23805;BME280;12083;52.098;7.582;2022-08-21T01:51:10;101319.19;;;20.15;64.21
23805;BME280;12083;52.098;7.582;2022-08-21T01:53:37;101316.59;;;20.14;64.19
23805;BME280;12083;52.098;7.582;2022-08-21T01:56:05;101311.44;;;20.11;64.29
23805;BME280;12083;52.098;7.582;2022-08-21T01:58:31;101314.28;;;20.08;64.24
23805;BME280;12083;52.098;7.582;2022-08-21T02:00:58;101310.81;;;20.06;64.34
23805;BME280;12083;52.098;7.582;2022-08-21T02:03:23;101311.84;;;20.03;64.60
23805;BME280;12083;52.098;7.582;2022-08-21T02:05:49;101307.50;;;20.01;64.79
23805;BME280;12083;52.098;7.582;2022-08-21T02:08:15;101303.22;;;19.98;64.66
23805;BME280;12083;52.098;7.582;2022-08-21T02:10:40;101307.84;;;19.94;64.84
23805;BME280;12083;52.098;7.582;2022-08-21T02:13:06;101300.97;;;19.90;64.97
23805;BME280;12083;52.098;7.582;2022-08-21T02:15:32;101306.47;;;19.87;65.25
23805;BME280;12083;52.098;7.582;2022-08-21T02:18:00;101309.31;;;19.84;65.13
23805;BME280;12083;52.098;7.582;2022-08-21T02:20:35;101302.41;;;19.80;65.12
23805;BME280;12083;52.098;7.582;2022-08-21T02:23:01;101303.50;;;19.76;65.26
23805;BME280;12083;52.098;7.582;2022-08-21T02:25:27;101302.72;;;19.74;65.23
23805;BME280;12083;52.098;7.582;2022-08-21T02:27:53;101305.63;;;19.70;65.35
23805;BME280;12083;52.098;7.582;2022-08-21T02:30:29;101302.25;;;19.66;65.26
23805;BME280;12083;52.098;7.582;2022-08-21T02:32:56;101298.81;;;19.64;65.43
23805;BME280;12083;52.098;7.582;2022-08-21T02:35:23;101305.25;;;19.60;65.65
23805;BME280;12083;52.098;7.582;2022-08-21T02:37:50;101307.22;;;19.57;65.58
23805;BME280;12083;52.098;7.582;2022-08-21T02:40:20;101307.44;;;19.52;65.75
23805;BME280;12083;52.098;7.582;2022-08-21T02:42:46;101310.28;;;19.49;65.67
23805;BME280;12083;52.098;7.582;2022-08-21T02:45:12;101312.13;;;19.47;65.76
23805;BME280;12083;52.098;7.582;2022-08-21T02:47:39;101296.44;;;19.41;65.63
23805;BME280;12083;52.098;7.582;2022-08-21T02:50:06;101298.41;;;19.37;65.83
23805;BME280;12083;52.098;7.582;2022-08-21T02:52:33;101305.69;;;19.34;66.42
23805;BME280;12083;52.098;7.582;2022-08-21T02:55:00;101311.16;;;19.31;66.04
23805;BME280;12083;52.098;7.582;2022-08-21T02:57:26;101300.66;;;19.28;66.05
23805;BME280;12083;52.098;7.582;2022-08-21T02:59:51;101303.47;;;19.25;66.10
23805;BME280;12083;52.098;7.582;2022-08-21T03:02:17;101301.84;;;19.22;66.01
23805;BME280;12083;52.098;7.582;2022-08-21T03:04:42;101290.50;;;19.19;66.12
23805;BME280;12083;52.098;7.582;2022-08-21T03:07:08;101290.63;;;19.16;66.38
23805;BME280;12083;52.098;7.582;2022-08-21T03:09:33;101290.78;;;19.13;66.38
23805;BME280;12083;52.098;7.582;2022-08-21T03:11:59;101288.28;;;19.10;66.45
23805;BME280;12083;52.098;7.582;2022-08-21T03:14:24;101291.00;;;19.08;66.29
23805;BME280;12083;52.098;7.582;2022-08-21T03:16:50;101285.94;;;19.03;66.49
23805;BME280;12083;52.098;7.582;2022-08-21T03:19:16;101286.06;;;19.00;66.75
23805;BME280;12083;52.098;7.582;2022-08-21T03:21:42;101288.00;;;18.97;66.75
23805;BME280;12083;52.098;7.582;2022-08-21T03:24:07;101285.50;;;18.94;66.81
23805;BME280;12083;52.098;7.582;2022-08-21T03:26:34;101283.06;;;18.89;66.80
23805;BME280;12083;52.098;7.582;2022-08-21T03:29:00;101279.63;;;18.87;66.88
23805;BME280;12083;52.098;7.582;2022-08-21T03:31:26;101281.50;;;18.85;67.08
23805;BME280;12083;52.098;7.582;2022-08-21T03:33:57;101288.88;;;18.80;66.92
23805;BME280;12083;52.098;7.582;2022-08-21T03:36:23;101288.13;;;18.77;67.00
23805;BME280;12083;52.098;7.582;2022-08-21T03:38:49;101289.16;;;18.74;67.07
23805;BME280;12083;52.098;7.582;2022-08-21T03:41:15;101290.22;;;18.70;67.11
23805;BME280;12083;52.098;7.582;2022-08-21T03:43:41;101289.47;;;18.68;67.06
23805;BME280;12083;52.098;7.582;2022-08-21T03:46:07;101286.91;;;18.65;67.11
23805;BME280;12083;52.098;7.582;2022-08-21T03:48:35;101281.75;;;18.62;67.21
23805;BME280;12083;52.098;7.582;2022-08-21T03:51:01;101277.38;;;18.61;67.12
23805;BME280;12083;52.098;7.582;2022-08-21T03:53:27;101277.59;;;18.57;67.21
23805;BME280;12083;52.098;7.582;2022-08-21T03:55:53;101292.75;;;18.54;67.31
23805;BME280;12083;52.098;7.582;2022-08-21T03:58:22;101291.13;;;18.52;67.37
23805;BME280;12083;52.098;7.582;2022-08-21T04:00:51;101290.38;;;18.48;67.49
23805;BME280;12083;52.098;7.582;2022-08-21T04:03:18;101289.66;;;18.45;67.47
23805;BME280;12083;52.098;7.582;2022-08-21T04:05:44;101294.19;;;18.43;67.63
23805;BME280;12083;52.098;7.582;2022-08-21T04:08:12;101295.19;;;18.40;67.67
23805;BME280;12083;52.098;7.582;2022-08-21T04:10:39;101298.78;;;18.39;67.82
23805;BME280;12083;52.098;7.582;2022-08-21T04:13:07;101295.41;;;18.36;67.75
23805;BME280;12083;52.098;7.582;2022-08-21T05:15:45;101318.16;;;18.23;68.62
23805;BME280;12083;52.098;7.582;2022-08-21T05:18:11;101317.25;;;18.24;68.76
23805;BME280;12083;52.098;7.582;2022-08-21T05:20:37;101316.25;;;18.26;68.84
23805;BME280;12083;52.098;7.582;2022-08-21T05:23:08;101312.59;;;18.29;68.94
23805;BME280;12083;52.098;7.582;2022-08-21T05:25:34;101312.44;;;18.32;68.81
23805;BME280;12083;52.098;7.582;2022-08-21T05:27:59;101318.47;;;18.35;68.86
23805;BME280;12083;52.098;7.582;2022-08-21T05:30:25;101324.50;;;18.39;69.12
23805;BME280;12083;52.098;7.582;2022-08-21T05:32:59;101315.59;;;18.40;69.17
23805;BME280;12083;52.098;7.582;2022-08-21T05:35:25;101319.84;;;18.44;69.15
23805;BME280;12083;52.098;7.582;2022-08-21T05:37:51;101322.38;;;18.47;69.39
23805;BME280;12083;52.098;7.582;2022-08-21T05:40:16;101318.63;;;18.51;69.31
23805;BME280;12083;52.098;7.582;2022-08-21T05:42:43;101322.91;;;18.55;69.53
23805;BME280;12083;52.098;7.582;2022-08-21T05:45:08;101327.94;;;18.61;69.35
23805;BME280;12083;52.098;7.582;2022-08-21T05:47:34;101317.06;;;18.66;69.62
23805;BME280;12083;52.098;7.582;2022-08-21T05:49:59;101318.63;;;18.70;69.54
23805;BME280;12083;52.098;7.582;2022-08-21T05:52:25;101319.28;;;18.75;69.85
23805;BME280;12083;52.098;7.582;2022-08-21T05:54:51;101320.81;;;18.80;69.71
23805;BME280;12083;52.098;7.582;2022-08-21T05:57:19;101318.75;;;18.85;70.06
23805;BME280;12083;52.098;7.582;2022-08-21T05:59:45;101314.88;;;18.92;69.89
23805;BME280;12083;52.098;7.582;2022-08-21T06:02:11;101319.75;;;19.01;69.98
23805;BME280;12083;52.098;7.582;2022-08-21T06:04:40;101318.44;;;19.10;69.87
23805;BME280;12083;52.098;7.582;2022-08-21T06:07:06;101309.44;;;19.30;70.22
23805;BME280;12083;52.098;7.582;2022-08-21T06:09:32;101310.13;;;19.85;71.64
23805;BME280;12083;52.098;7.582;2022-08-21T06:12:03;101307.69;;;20.93;71.48
23805;BME280;12083;52.098;7.582;2022-08-21T06:14:29;101301.25;;;22.29;70.17
23805;BME280;12083;52.098;7.582;2022-08-21T06:17:01;101301.53;;;23.85;67.42
23805;BME280;12083;52.098;7.582;2022-08-21T06:19:27;101302.97;;;25.36;64.51
23805;BME280;12083;52.098;7.582;2022-08-21T06:21:53;101301.22;;;26.81;61.96
23805;BME280;12083;52.098;7.582;2022-08-21T06:24:18;101292.22;;;28.18;58.88
23805;BME280;12083;52.098;7.582;2022-08-21T06:26:44;101292.59;;;29.51;56.44
23805;BME280;12083;52.098;7.582;2022-08-21T06:29:10;101295.19;;;30.72;53.78
23805;BME280;12083;52.098;7.582;2022-08-21T06:31:38;101295.91;;;31.89;52.21
23805;BME280;12083;52.098;7.582;2022-08-21T06:34:04;101295.03;;;32.90;50.15
23805;BME280;12083;52.098;7.582;2022-08-21T06:36:30;101285.34;;;33.84;48.18
23805;BME280;12083;52.098;7.582;2022-08-21T06:38:55;101285.09;;;34.65;46.52
23805;BME280;12083;52.098;7.582;2022-08-21T06:41:21;101289.97;;;35.46;45.06
23805;BME280;12083;52.098;7.582;2022-08-21T06:43:47;101286.41;;;36.27;43.53
23805;BME280;12083;52.098;7.582;2022-08-21T06:46:12;101284.69;;;37.06;42.08
23805;BME280;12083;52.098;7.582;2022-08-21T06:48:38;101284.09;;;37.81;40.50
23805;BME280;12083;52.098;7.582;2022-08-21T06:51:03;101274.75;;;38.44;39.77
23805;BME280;12083;52.098;7.582;2022-08-21T06:53:29;101282.97;;;39.04;38.42
23805;BME280;12083;52.098;7.582;2022-08-21T06:55:55;101280.09;;;39.45;37.50
23805;BME280;12083;52.098;7.582;2022-08-21T06:58:20;101274.16;;;39.81;36.44
23805;BME280;12083;52.098;7.582;2022-08-21T07:00:48;101282.97;;;40.10;35.52
23805;BME280;12083;52.098;7.582;2022-08-21T07:03:19;101279.03;;;40.43;34.64
23805;BME280;12083;52.098;7.582;2022-08-21T07:05:45;101283.38;;;40.77;34.17
23805;BME280;12083;52.098;7.582;2022-08-21T07:08:11;101279.63;;;41.03;33.42
23805;BME280;12083;52.098;7.582;2022-08-21T07:10:37;101282.91;;;41.18;33.07
23805;BME280;12083;52.098;7.582;2022-08-21T07:13:02;101280.66;;;41.33;32.40
23805;BME280;12083;52.098;7.582;2022-08-21T07:15:29;101282.28;;;41.48;31.78
23805;BME280;12083;52.098;7.582;2022-08-21T07:17:54;101275.38;;;41.57;31.60
23805;BME280;12083;52.098;7.582;2022-08-21T07:20:20;101280.44;;;41.60;31.01
23805;BME280;12083;52.098;7.582;2022-08-21T07:22:46;101285.03;;;41.48;30.65
23805;BME280;12083;52.098;7.582;2022-08-21T07:25:11;101281.03;;;41.37;30.39
23805;BME280;12083;52.098;7.582;2022-08-21T07:27:37;101284.47;;;41.32;30.10
23805;BME280;12083;52.098;7.582;2022-08-21T07:30:04;101289.06;;;41.20;29.87
23805;BME280;12083;52.098;7.582;2022-08-21T07:32:30;101280.69;;;41.02;29.70
23805;BME280;12083;52.098;7.582;2022-08-21T07:34:56;101278.97;;;40.70;29.54
23805;BME280;12083;52.098;7.582;2022-08-21T07:37:21;101282.13;;;40.22;29.51
23805;BME280;12083;52.098;7.582;2022-08-21T07:39:47;101276.69;;;39.76;29.63
23805;BME280;12083;52.098;7.582;2022-08-21T07:42:15;101277.69;;;39.16;29.84
23805;BME280;12083;52.098;7.582;2022-08-21T07:44:41;101275.66;;;38.57;30.11
23805;BME280;12083;52.098;7.582;2022-08-21T07:47:06;101276.47;;;38.04;30.20
23805;BME280;12083;52.098;7.582;2022-08-21T07:49:32;101278.19;;;37.56;30.64
23805;BME280;12083;52.098;7.582;2022-08-21T07:51:57;101272.06;;;37.11;31.02
23805;BME280;12083;52.098;7.582;2022-08-21T07:54:23;101271.38;;;36.67;31.25
23805;BME280;12083;52.098;7.582;2022-08-21T07:56:48;101265.38;;;36.27;31.54
23805;BME280;12083;52.098;7.582;2022-08-21T07:59:14;101266.13;;;35.77;31.85
23805;BME280;12083;52.098;7.582;2022-08-21T08:01:40;101267.97;;;35.25;31.80
23805;BME280;12083;52.098;7.582;2022-08-21T08:04:05;101270.91;;;34.70;32.53
23805;BME280;12083;52.098;7.582;2022-08-21T08:06:31;101270.28;;;34.21;32.79
23805;BME280;12083;52.098;7.582;2022-08-21T08:08:57;101270.19;;;33.82;32.85
23805;BME280;12083;52.098;7.582;2022-08-21T08:11:22;101272.59;;;33.44;33.21
23805;BME280;12083;52.098;7.582;2022-08-21T08:13:50;101266.97;;;33.05;33.56
23805;BME280;12083;52.098;7.582;2022-08-21T08:16:16;101269.63;;;32.65;33.89
23805;BME280;12083;52.098;7.582;2022-08-21T08:18:42;101270.50;;;32.32;34.22
23805;BME280;12083;52.098;7.582;2022-08-21T08:21:09;101263.16;;;31.98;34.60
23805;BME280;12083;52.098;7.582;2022-08-21T08:23:35;101259.56;;;31.64;35.00
23805;BME280;12083;52.098;7.582;2022-08-21T08:26:01;101265.94;;;31.37;35.01
23805;BME280;12083;52.098;7.582;2022-08-21T08:28:30;101258.78;;;31.10;35.53
23805;BME280;12083;52.098;7.582;2022-08-21T08:30:57;101258.03;;;30.91;35.49
23805;BME280;12083;52.098;7.582;2022-08-21T08:33:23;101251.91;;;30.71;35.95
23805;BME280;12083;52.098;7.582;2022-08-21T08:35:50;101251.72;;;30.55;35.81
23805;BME280;12083;52.098;7.582;2022-08-21T08:38:18;101257.22;;;30.36;36.47
23805;BME280;12083;52.098;7.582;2022-08-21T08:40:51;101250.63;;;30.20;36.35
23805;BME280;12083;52.098;7.582;2022-08-21T08:43:18;101248.28;;;30.08;36.94
23805;BME280;12083;52.098;7.582;2022-08-21T08:45:47;101258.88;;;29.92;37.19
23805;BME280;12083;52.098;7.582;2022-08-21T08:49:05;101252.34;;;29.75;37.15
23805;BME280;12083;52.098;7.582;2022-08-21T08:51:08;101246.09;;;29.65;37.33
23805;BME280;12083;52.098;7.582;2022-08-21T08:53:47;101255.81;;;29.58;37.62
23805;BME280;12083;52.098;7.582;2022-08-21T08:56:14;101249.56;;;29.57;37.90
23805;BME280;12083;52.098;7.582;2022-08-21T08:58:42;101247.09;;;29.54;38.10
23805;BME280;12083;52.098;7.582;2022-08-21T09:01:16;101243.84;;;29.51;37.93
23805;BME280;12083;52.098;7.582;2022-08-21T09:03:43;101252.13;;;29.40;38.14
23805;BME280;12083;52.098;7.582;2022-08-21T09:06:28;101251.31;;;29.29;38.26
23805;BME280;12083;52.098;7.582;2022-08-21T09:12:11;101242.31;;;29.19;38.27
23805;BME280;12083;52.098;7.582;2022-08-21T09:17:41;101241.59;;;28.98;38.60
23805;BME280;12083;52.098;7.582;2022-08-21T09:20:32;101242.72;;;28.86;38.64
23805;BME280;12083;52.098;7.582;2022-08-21T09:23:40;101241.44;;;28.71;38.72
23805;BME280;12083;52.098;7.582;2022-08-21T09:26:17;101228.19;;;28.68;38.85
23805;BME280;12083;52.098;7.582;2022-08-21T09:28:44;101235.03;;;28.72;38.72
23805;BME280;12083;52.098;7.582;2022-08-21T09:33:46;101216.41;;;28.88;38.35
23805;BME280;12083;52.098;7.582;2022-08-21T09:36:23;101213.41;;;29.01;38.30
23805;BME280;12083;52.098;7.582;2022-08-21T09:38:52;101236.88;;;29.00;37.92
23805;BME280;12083;52.098;7.582;2022-08-21T09:41:27;101229.06;;;28.97;37.98
23805;BME280;12083;52.098;7.582;2022-08-21T09:43:53;101227.63;;;28.93;37.85
23805;BME280;12083;52.098;7.582;2022-08-21T09:46:27;101235.59;;;28.85;37.94
23805;BME280;12083;52.098;7.582;2022-08-21T09:48:56;101215.25;;;28.91;38.02
23805;BME280;12083;52.098;7.582;2022-08-21T09:51:23;101214.97;;;28.94;37.88
23805;BME280;12083;52.098;7.582;2022-08-21T09:54:10;101218.25;;;28.97;37.72
23805;BME280;12083;52.098;7.582;2022-08-21T09:59:37;101214.41;;;29.09;37.30
23805;BME280;12083;52.098;7.582;2022-08-21T10:02:23;101209.72;;;29.11;37.81
23805;BME280;12083;52.098;7.582;2022-08-21T10:05:02;101209.13;;;29.17;37.51
23805;BME280;12083;52.098;7.582;2022-08-21T10:07:30;101205.72;;;29.15;37.66
23805;BME280;12083;52.098;7.582;2022-08-21T10:10:05;101206.28;;;29.09;37.73
23805;BME280;12083;52.098;7.582;2022-08-21T10:32:27;101202.84;;;29.83;37.15
23805;BME280;12083;52.098;7.582;2022-08-21T10:35:21;101204.03;;;30.07;36.35
23805;BME280;12083;52.098;7.582;2022-08-21T10:40:33;101196.13;;;30.51;35.89
23805;BME280;12083;52.098;7.582;2022-08-21T10:43:18;101199.59;;;30.96;35.12
23805;BME280;12083;52.098;7.582;2022-08-21T10:48:50;101194.13;;;32.25;33.80
23805;BME280;12083;52.098;7.582;2022-08-21T10:54:19;101197.84;;;33.47;32.40
23805;BME280;12083;52.098;7.582;2022-08-21T10:56:56;101192.06;;;34.05;31.49
23805;BME280;12083;52.098;7.582;2022-08-21T11:07:43;101186.53;;;35.72;29.85
23805;BME280;12083;52.098;7.582;2022-08-21T11:10:38;101187.91;;;36.27;29.35
23805;BME280;12083;52.098;7.582;2022-08-21T11:13:13;101184.72;;;36.81;28.83
23805;BME280;12083;52.098;7.582;2022-08-21T11:18:59;101177.13;;;37.94;27.78
23805;BME280;12083;52.098;7.582;2022-08-21T11:24:17;101178.13;;;39.27;26.51
23805;BME280;12083;52.098;7.582;2022-08-21T11:26:59;101178.00;;;39.93;25.96
23805;BME280;12083;52.098;7.582;2022-08-21T11:29:29;101181.66;;;40.31;25.57
23805;BME280;12083;52.098;7.582;2022-08-21T11:32:11;101190.78;;;40.70;25.38
23805;BME280;12083;52.098;7.582;2022-08-21T11:37:28;101185.59;;;41.36;24.52
23805;BME280;12083;52.098;7.582;2022-08-21T11:40:12;101179.44;;;41.59;24.21
23805;BME280;12083;52.098;7.582;2022-08-21T11:45:44;101182.19;;;42.13;23.78
23805;BME280;12083;52.098;7.582;2022-08-21T11:50:46;101179.97;;;42.52;23.57
23805;BME280;12083;52.098;7.582;2022-08-21T11:53:18;101184.06;;;42.61;22.85
23805;BME280;12083;52.098;7.582;2022-08-21T11:55:56;101181.47;;;42.66;23.01
23805;BME280;12083;52.098;7.582;2022-08-21T11:58:32;101191.28;;;42.62;22.76
23805;BME280;12083;52.098;7.582;2022-08-21T12:01:07;101184.66;;;42.51;22.39
23805;BME280;12083;52.098;7.582;2022-08-21T12:03:36;101181.56;;;42.29;22.63
23805;BME280;12083;52.098;7.582;2022-08-21T12:06:10;101186.66;;;41.96;22.73
23805;BME280;12083;52.098;7.582;2022-08-21T12:08:44;101181.88;;;41.67;22.85
23805;BME280;12083;52.098;7.582;2022-08-21T12:14:11;101191.88;;;40.94;22.78
23805;BME280;12083;52.098;7.582;2022-08-21T12:16:46;101188.44;;;40.35;23.13
23805;BME280;12083;52.098;7.582;2022-08-21T12:19:32;101190.25;;;40.04;23.42
23805;BME280;12083;52.098;7.582;2022-08-21T12:22:08;101191.16;;;39.84;23.66
23805;BME280;12083;52.098;7.582;2022-08-21T12:30:02;101187.84;;;38.84;23.90
23805;BME280;12083;52.098;7.582;2022-08-21T12:32:44;101179.91;;;38.41;24.22
23805;BME280;12083;52.098;7.582;2022-08-21T12:35:21;101175.31;;;38.01;24.09
23805;BME280;12083;52.098;7.582;2022-08-21T12:38:14;101180.56;;;37.61;24.44
23805;BME280;12083;52.098;7.582;2022-08-21T12:40:52;101181.16;;;37.29;24.68
23805;BME280;12083;52.098;7.582;2022-08-21T12:45:55;101185.34;;;36.61;24.96
23805;BME280;12083;52.098;7.582;2022-08-21T12:53:49;101181.56;;;35.76;25.52
23805;BME280;12083;52.098;7.582;2022-08-21T12:56:21;101181.22;;;35.56;26.15
23805;BME280;12083;52.098;7.582;2022-08-21T12:58:50;101174.69;;;35.43;26.23
23805;BME280;12083;52.098;7.582;2022-08-21T13:03:45;101186.94;;;34.95;26.14
23805;BME280;12083;52.098;7.582;2022-08-21T13:06:17;101182.81;;;34.76;26.55
23805;BME280;12083;52.098;7.582;2022-08-21T13:08:45;101186.84;;;34.57;26.84
23805;BME280;12083;52.098;7.582;2022-08-21T13:11:15;101183.91;;;34.36;26.51
23805;BME280;12083;52.098;7.582;2022-08-21T13:13:42;101183.31;;;34.18;27.10
23805;BME280;12083;52.098;7.582;2022-08-21T13:16:09;101177.94;;;34.02;27.28
23805;BME280;12083;52.098;7.582;2022-08-21T13:18:52;101177.28;;;33.91;26.95
23805;BME280;12083;52.098;7.582;2022-08-21T13:21:18;101187.91;;;33.78;27.33
23805;BME280;12083;52.098;7.582;2022-08-21T13:23:44;101182.84;;;33.67;27.33
23805;BME280;12083;52.098;7.582;2022-08-21T13:26:18;101188.59;;;33.56;27.35
23805;BME280;12083;52.098;7.582;2022-08-21T13:28:45;101183.72;;;33.43;27.53
23805;BME280;12083;52.098;7.582;2022-08-21T13:31:18;101175.06;;;33.32;27.55
23805;BME280;12083;52.098;7.582;2022-08-21T13:33:47;101180.19;;;33.19;27.78
23805;BME280;12083;52.098;7.582;2022-08-21T13:36:24;101178.78;;;33.06;27.80
23805;BME280;12083;52.098;7.582;2022-08-21T13:38:52;101177.44;;;32.94;28.05
23805;BME280;12083;52.098;7.582;2022-08-21T13:41:24;101181.84;;;32.87;28.13
23805;BME280;12083;52.098;7.582;2022-08-21T13:44:01;101176.09;;;32.74;28.24
23805;BME280;12083;52.098;7.582;2022-08-21T13:46:30;101190.69;;;32.65;28.18
23805;BME280;12083;52.098;7.582;2022-08-21T13:48:58;101179.44;;;32.60;28.27
23805;BME280;12083;52.098;7.582;2022-08-21T13:51:24;101179.75;;;32.57;28.31
23805;BME280;12083;52.098;7.582;2022-08-21T13:53:51;101184.69;;;32.53;28.54
23805;BME280;12083;52.098;7.582;2022-08-21T13:58:49;101183.31;;;32.49;28.41
23805;BME280;12083;52.098;7.582;2022-08-21T14:01:47;101189.44;;;32.43;28.75
23805;BME280;12083;52.098;7.582;2022-08-21T14:04:19;101185.16;;;32.33;28.79
23805;BME280;12083;52.098;7.582;2022-08-21T14:06:46;101179.88;;;32.23;28.72
23805;BME280;12083;52.098;7.582;2022-08-21T14:09:20;101175.94;;;32.18;28.58
23805;BME280;12083;52.098;7.582;2022-08-21T14:11:49;101176.41;;;32.13;28.65
23805;BME280;12083;52.098;7.582;2022-08-21T14:14:29;101164.19;;;32.09;28.74
23805;BME280;12083;52.098;7.582;2022-08-21T14:16:59;101175.53;;;32.04;29.11
23805;BME280;12083;52.098;7.582;2022-08-21T14:19:39;101173.78;;;31.95;28.90
23805;BME280;12083;52.098;7.582;2022-08-21T14:22:31;101172.03;;;31.86;29.11
23805;BME280;12083;52.098;7.582;2022-08-21T14:27:44;101170.81;;;31.73;29.26
23805;BME280;12083;52.098;7.582;2022-08-21T14:30:32;101173.31;;;31.66;29.35
23805;BME280;12083;52.098;7.582;2022-08-21T14:32:59;101174.97;;;31.59;29.33
23805;BME280;12083;52.098;7.582;2022-08-21T14:35:25;101169.47;;;31.51;29.67
23805;BME280;12083;52.098;7.582;2022-08-21T14:37:52;101162.81;;;31.45;29.32
23805;BME280;12083;52.098;7.582;2022-08-21T14:40:19;101161.91;;;31.37;29.03
23805;BME280;12083;52.098;7.582;2022-08-21T14:42:45;101162.88;;;31.28;29.70
23805;BME280;12083;52.098;7.582;2022-08-21T14:45:17;101150.09;;;31.20;29.31
23805;BME280;12083;52.098;7.582;2022-08-21T14:47:44;101159.88;;;31.13;29.33
23805;BME280;12083;52.098;7.582;2022-08-21T14:50:10;101156.94;;;31.06;29.32
23805;BME280;12083;52.098;7.582;2022-08-21T14:52:37;101158.44;;;31.01;29.86
23805;BME280;12083;52.098;7.582;2022-08-21T14:55:04;101162.59;;;30.95;29.97
23805;BME280;12083;52.098;7.582;2022-08-21T14:57:30;101164.25;;;30.88;30.04
23805;BME280;12083;52.098;7.582;2022-08-21T14:59:56;101158.41;;;30.83;30.03
23805;BME280;12083;52.098;7.582;2022-08-21T15:02:22;101156.34;;;30.77;30.29
23805;BME280;12083;52.098;7.582;2022-08-21T15:04:48;101159.34;;;30.74;29.95
23805;BME280;12083;52.098;7.582;2022-08-21T15:07:13;101160.69;;;30.70;30.15
23805;BME280;12083;52.098;7.582;2022-08-21T15:09:39;101150.13;;;30.67;29.90
23805;BME280;12083;52.098;7.582;2022-08-21T15:12:05;101146.19;;;30.61;30.28
23805;BME280;12083;52.098;7.582;2022-08-21T15:14:34;101149.69;;;30.54;29.97
23805;BME280;12083;52.098;7.582;2022-08-21T15:17:01;101154.72;;;30.49;30.44
23805;BME280;12083;52.098;7.582;2022-08-21T15:19:28;101149.94;;;30.43;30.19
23805;BME280;12083;52.098;7.582;2022-08-21T15:21:54;101150.50;;;30.37;30.73
23805;BME280;12083;52.098;7.582;2022-08-21T15:24:20;101151.13;;;30.31;30.81
23805;BME280;12083;52.098;7.582;2022-08-21T15:26:46;101151.72;;;30.24;30.89
23805;BME280;12083;52.098;7.582;2022-08-21T15:29:12;101148.78;;;30.18;30.69